sensor_id;sensor_type;location;lat;lon;timestamp;temperature;humidity
5901;DHT22;2976;49.764;9.796;2023-05-18T00:02:13;6.40;99.90
5901;DHT22;2976;49.764;9.796;2023-05-18T00:04:40;6.40;99.90
5901;DHT22;2976;49.764;9.796;2023-05-18T00:07:06;6.40;99.90
5901;DHT22;2976;49.764;9.796;2023-05-18T00:09:33;6.50;99.90
5901;DHT22;2976;49.764;9.796;2023-05-18T00:12:00;6.40;99.90
5901;DHT22;2976;49.764;9.796;2023-05-18T00:14:26;6.40;99.90
5901;DHT22;2976;49.764;9.796;2023-05-18T00:16:52;6.30;99.90
5901;DHT22;2976;49.764;9.796;2023-05-18T00:19:18;6.30;99.90
5901;DHT22;2976;49.764;9.796;2023-05-18T00:21:45;6.20;99.90
5901;DHT22;2976;49.764;9.796;2023-05-18T00:24:12;6.10;99.90
5901;DHT22;2976;49.764;9.796;2023-05-18T00:26:39;6.00;99.90
5901;DHT22;2976;49.764;9.796;2023-05-18T00:29:06;6.00;99.90
5901;DHT22;2976;49.764;9.796;2023-05-18T00:31:32;5.90;99.90
5901;DHT22;2976;49.764;9.796;2023-05-18T00:34:03;5.80;99.90
5901;DHT22;2976;49.764;9.796;2023-05-18T00:36:29;5.80;99.90
5901;DHT22;2976;49.764;9.796;2023-05-18T00:38:55;5.70;99.90
5901;DHT22;2976;49.764;9.796;2023-05-18T00:41:21;5.70;99.90
5901;DHT22;2976;49.764;9.796;2023-05-18T00:43:47;5.70;99.90
5901;DHT22;2976;49.764;9.796;2023-05-18T00:46:12;5.60;99.90
5901;DHT22;2976;49.764;9.796;2023-05-18T00:48:38;5.60;99.90
5901;DHT22;2976;49.764;9.796;2023-05-18T00:51:04;5.60;99.90
5901;DHT22;2976;49.764;9.796;2023-05-18T00:53:31;5.50;99.90
5901;DHT22;2976;49.764;9.796;2023-05-18T00:55:57;5.40;99.90
5901;DHT22;2976;49.764;9.796;2023-05-18T00:58:23;5.30;99.90
5901;DHT22;2976;49.764;9.796;2023-05-18T01:00:48;5.30;99.90
5901;DHT22;2976;49.764;9.796;2023-05-18T01:03:14;5.20;99.90
5901;DHT22;2976;49.764;9.796;2023-05-18T01:05:40;5.20;99.90
5901;DHT22;2976;49.764;9.796;2023-05-18T01:08:06;5.10;99.90
5901;DHT22;2976;49.764;9.796;2023-05-18T01:10:36;5.10;99.90
5901;DHT22;2976;49.764;9.796;2023-05-18T01:13:05;5.00;99.90
5901;DHT22;2976;49.764;9.796;2023-05-18T01:15:36;4.90;99.90
5901;DHT22;2976;49.764;9.796;2023-05-18T01:18:18;4.90;99.90
5901;DHT22;2976;49.764;9.796;2023-05-18T01:20:49;4.90;99.90
5901;DHT22;2976;49.764;9.796;2023-05-18T01:26:13;5.00;99.90
5901;DHT22;2976;49.764;9.796;2023-05-18T01:28:40;4.90;99.90
5901;DHT22;2976;49.764;9.796;2023-05-18T01:31:07;4.90;99.90
5901;DHT22;2976;49.764;9.796;2023-05-18T01:33:34;4.90;99.90
5901;DHT22;2976;49.764;9.796;2023-05-18T01:35:59;4.90;99.90
5901;DHT22;2976;49.764;9.796;2023-05-18T01:38:26;4.80;99.90
5901;DHT22;2976;49.764;9.796;2023-05-18T01:41:04;4.80;99.90
5901;DHT22;2976;49.764;9.796;2023-05-18T01:43:34;4.70;99.90
5901;DHT22;2976;49.764;9.796;2023-05-18T01:46:04;4.60;99.90
5901;DHT22;2976;49.764;9.796;2023-05-18T01:48:36;4.60;99.90
5901;DHT22;2976;49.764;9.796;2023-05-18T01:51:03;4.50;99.90
5901;DHT22;2976;49.764;9.796;2023-05-18T01:53:37;4.50;99.90
5901;DHT22;2976;49.764;9.796;2023-05-18T01:56:06;4.40;99.90
5901;DHT22;2976;49.764;9.796;2023-05-18T01:58:34;4.40;99.90
5901;DHT22;2976;49.764;9.796;2023-05-18T02:01:01;4.30;99.90
5901;DHT22;2976;49.764;9.796;2023-05-18T02:03:27;4.30;99.90
5901;DHT22;2976;49.764;9.796;2023-05-18T02:05:55;4.30;99.90
5901;DHT22;2976;49.764;9.796;2023-05-18T02:08:21;4.30;99.90
5901;DHT22;2976;49.764;9.796;2023-05-18T02:10:46;4.20;99.90
5901;DHT22;2976;49.764;9.796;2023-05-18T02:13:12;4.10;99.90
5901;DHT22;2976;49.764;9.796;2023-05-18T02:15:37;4.00;99.90
5901;DHT22;2976;49.764;9.796;2023-05-18T02:18:03;3.90;99.90
5901;DHT22;2976;49.764;9.796;2023-05-18T02:20:29;3.80;99.90
5901;DHT22;2976;49.764;9.796;2023-05-18T02:22:58;3.80;99.90
5901;DHT22;2976;49.764;9.796;2023-05-18T02:25:24;3.70;99.90
5901;DHT22;2976;49.764;9.796;2023-05-18T02:27:50;3.70;99.90
5901;DHT22;2976;49.764;9.796;2023-05-18T02:30:15;3.70;99.90
5901;DHT22;2976;49.764;9.796;2023-05-18T02:32:41;3.60;99.90
5901;DHT22;2976;49.764;9.796;2023-05-18T02:35:07;3.60;99.90
5901;DHT22;2976;49.764;9.796;2023-05-18T02:37:33;3.50;99.90
5901;DHT22;2976;49.764;9.796;2023-05-18T02:40:04;3.50;99.90
5901;DHT22;2976;49.764;9.796;2023-05-18T02:42:30;3.50;99.90
5901;DHT22;2976;49.764;9.796;2023-05-18T02:44:56;3.40;99.90
5901;DHT22;2976;49.764;9.796;2023-05-18T02:47:21;3.40;99.90
5901;DHT22;2976;49.764;9.796;2023-05-18T02:49:47;3.40;99.90
5901;DHT22;2976;49.764;9.796;2023-05-18T02:52:12;3.30;99.90
5901;DHT22;2976;49.764;9.796;2023-05-18T02:54:38;3.30;99.90
5901;DHT22;2976;49.764;9.796;2023-05-18T02:57:03;3.30;99.90
5901;DHT22;2976;49.764;9.796;2023-05-18T02:59:29;3.40;99.90
5901;DHT22;2976;49.764;9.796;2023-05-18T03:01:54;3.30;99.90
5901;DHT22;2976;49.764;9.796;2023-05-18T03:04:20;3.40;99.90
5901;DHT22;2976;49.764;9.796;2023-05-18T03:06:46;3.40;99.90
5901;DHT22;2976;49.764;9.796;2023-05-18T03:09:11;3.50;99.90
5901;DHT22;2976;49.764;9.796;2023-05-18T03:11:37;3.50;99.90
5901;DHT22;2976;49.764;9.796;2023-05-18T03:14:03;3.60;99.90
5901;DHT22;2976;49.764;9.796;2023-05-18T03:16:28;3.70;99.90
5901;DHT22;2976;49.764;9.796;2023-05-18T03:18:54;3.70;99.90
5901;DHT22;2976;49.764;9.796;2023-05-18T03:21:23;3.80;99.90
5901;DHT22;2976;49.764;9.796;2023-05-18T03:23:48;3.80;99.90
5901;DHT22;2976;49.764;9.796;2023-05-18T03:26:14;3.80;99.90
5901;DHT22;2976;49.764;9.796;2023-05-18T03:28:41;3.90;99.90
5901;DHT22;2976;49.764;9.796;2023-05-18T03:31:06;3.80;99.90
5901;DHT22;2976;49.764;9.796;2023-05-18T03:33:32;3.90;99.90
5901;DHT22;2976;49.764;9.796;2023-05-18T03:36:02;3.90;99.90
5901;DHT22;2976;49.764;9.796;2023-05-18T03:38:27;3.90;99.90
5901;DHT22;2976;49.764;9.796;2023-05-18T03:40:53;4.00;99.90
5901;DHT22;2976;49.764;9.796;2023-05-18T03:43:19;4.00;99.90
5901;DHT22;2976;49.764;9.796;2023-05-18T03:45:45;4.00;99.90
5901;DHT22;2976;49.764;9.796;2023-05-18T03:48:10;4.00;99.90
5901;DHT22;2976;49.764;9.796;2023-05-18T03:50:36;4.00;99.90
5901;DHT22;2976;49.764;9.796;2023-05-18T03:53:02;3.90;99.90
5901;DHT22;2976;49.764;9.796;2023-05-18T03:55:28;3.90;99.90
5901;DHT22;2976;49.764;9.796;2023-05-18T03:57:54;3.90;99.90
5901;DHT22;2976;49.764;9.796;2023-05-18T04:00:19;3.90;99.90
5901;DHT22;2976;49.764;9.796;2023-05-18T04:02:46;3.90;99.90
5901;DHT22;2976;49.764;9.796;2023-05-18T04:05:11;3.90;99.90
5901;DHT22;2976;49.764;9.796;2023-05-18T04:07:37;3.90;99.90
5901;DHT22;2976;49.764;9.796;2023-05-18T04:10:09;3.90;99.90
5901;DHT22;2976;49.764;9.796;2023-05-18T04:12:35;3.90;99.90
5901;DHT22;2976;49.764;9.796;2023-05-18T04:15:00;4.00;99.90
5901;DHT22;2976;49.764;9.796;2023-05-18T04:17:26;4.00;99.90
5901;DHT22;2976;49.764;9.796;2023-05-18T04:19:51;4.10;99.90
5901;DHT22;2976;49.764;9.796;2023-05-18T04:22:17;4.10;99.90
5901;DHT22;2976;49.764;9.796;2023-05-18T04:24:42;4.20;99.90
5901;DHT22;2976;49.764;9.796;2023-05-18T04:27:11;4.20;99.90
5901;DHT22;2976;49.764;9.796;2023-05-18T04:29:37;4.30;99.90
5901;DHT22;2976;49.764;9.796;2023-05-18T04:32:04;4.40;99.90
5901;DHT22;2976;49.764;9.796;2023-05-18T04:34:32;4.50;99.90
5901;DHT22;2976;49.764;9.796;2023-05-18T04:37:00;4.60;99.90
5901;DHT22;2976;49.764;9.796;2023-05-18T04:39:27;4.70;99.90
5901;DHT22;2976;49.764;9.796;2023-05-18T04:41:52;5.00;99.90
5901;DHT22;2976;49.764;9.796;2023-05-18T04:44:28;5.60;99.90
5901;DHT22;2976;49.764;9.796;2023-05-18T04:46:55;6.40;99.90
5901;DHT22;2976;49.764;9.796;2023-05-18T04:49:21;7.40;99.90
5901;DHT22;2976;49.764;9.796;2023-05-18T04:51:48;8.70;99.90
5901;DHT22;2976;49.764;9.796;2023-05-18T04:54:14;9.50;1.00
5901;DHT22;2976;49.764;9.796;2023-05-18T04:56:40;10.00;1.00
5901;DHT22;2976;49.764;9.796;2023-05-18T04:59:07;9.80;99.90
5901;DHT22;2976;49.764;9.796;2023-05-18T05:01:33;9.90;99.90
5901;DHT22;2976;49.764;9.796;2023-05-18T05:03:59;9.60;99.90
5901;DHT22;2976;49.764;9.796;2023-05-18T05:06:24;9.60;1.00
5901;DHT22;2976;49.764;9.796;2023-05-18T05:08:50;9.10;99.90
5901;DHT22;2976;49.764;9.796;2023-05-18T05:11:16;9.00;99.90
5901;DHT22;2976;49.764;9.796;2023-05-18T05:13:41;8.90;1.00
5901;DHT22;2976;49.764;9.796;2023-05-18T05:16:07;8.90;99.90
5901;DHT22;2976;49.764;9.796;2023-05-18T05:18:32;9.00;99.90
5901;DHT22;2976;49.764;9.796;2023-05-18T05:20:58;9.00;96.30
5901;DHT22;2976;49.764;9.796;2023-05-18T05:23:23;8.80;99.90
5901;DHT22;2976;49.764;9.796;2023-05-18T05:25:49;8.60;49.30
5901;DHT22;2976;49.764;9.796;2023-05-18T05:28:15;8.50;99.90
5901;DHT22;2976;49.764;9.796;2023-05-18T05:30:40;8.30;99.90
5901;DHT22;2976;49.764;9.796;2023-05-18T05:33:06;8.30;99.90
5901;DHT22;2976;49.764;9.796;2023-05-18T05:35:31;8.30;99.90
5901;DHT22;2976;49.764;9.796;2023-05-18T05:37:57;8.40;99.90
5901;DHT22;2976;49.764;9.796;2023-05-18T05:40:23;8.90;99.90
5901;DHT22;2976;49.764;9.796;2023-05-18T05:42:48;9.60;99.90
5901;DHT22;2976;49.764;9.796;2023-05-18T05:45:14;10.30;22.50
5901;DHT22;2976;49.764;9.796;2023-05-18T05:47:40;10.90;1.00
5901;DHT22;2976;49.764;9.796;2023-05-18T05:50:06;10.80;1.00
5901;DHT22;2976;49.764;9.796;2023-05-18T05:52:31;10.60;4.00
5901;DHT22;2976;49.764;9.796;2023-05-18T05:54:57;10.50;99.90
5901;DHT22;2976;49.764;9.796;2023-05-18T05:57:22;10.60;1.00
5901;DHT22;2976;49.764;9.796;2023-05-18T05:59:48;11.10;99.90
5901;DHT22;2976;49.764;9.796;2023-05-18T06:02:14;11.60;39.30
5901;DHT22;2976;49.764;9.796;2023-05-18T06:04:39;12.40;69.70
5901;DHT22;2976;49.764;9.796;2023-05-18T06:07:05;12.80;1.00
5901;DHT22;2976;49.764;9.796;2023-05-18T06:09:31;13.40;1.00
5901;DHT22;2976;49.764;9.796;2023-05-18T06:11:57;14.30;99.90
5901;DHT22;2976;49.764;9.796;2023-05-18T06:14:22;13.90;99.90
5901;DHT22;2976;49.764;9.796;2023-05-18T06:16:48;14.80;99.90
5901;DHT22;2976;49.764;9.796;2023-05-18T06:19:14;14.10;99.90
5901;DHT22;2976;49.764;9.796;2023-05-18T06:21:39;13.30;99.90
5901;DHT22;2976;49.764;9.796;2023-05-18T06:24:05;12.20;1.00
5901;DHT22;2976;49.764;9.796;2023-05-18T06:26:31;12.10;1.00
5901;DHT22;2976;49.764;9.796;2023-05-18T06:28:57;12.00;99.90
5901;DHT22;2976;49.764;9.796;2023-05-18T06:31:22;12.40;1.00
5901;DHT22;2976;49.764;9.796;2023-05-18T06:33:48;12.20;1.00
5901;DHT22;2976;49.764;9.796;2023-05-18T06:36:15;12.40;91.90
5901;DHT22;2976;49.764;9.796;2023-05-18T06:38:40;12.80;1.00
5901;DHT22;2976;49.764;9.796;2023-05-18T06:41:06;12.80;1.00
5901;DHT22;2976;49.764;9.796;2023-05-18T06:43:32;12.70;87.60
5901;DHT22;2976;49.764;9.796;2023-05-18T06:45:57;13.00;1.00
5901;DHT22;2976;49.764;9.796;2023-05-18T06:48:26;12.60;1.00
5901;DHT22;2976;49.764;9.796;2023-05-18T06:50:52;13.00;1.00
5901;DHT22;2976;49.764;9.796;2023-05-18T06:53:18;13.20;1.00
5901;DHT22;2976;49.764;9.796;2023-05-18T06:55:44;13.10;1.00
5901;DHT22;2976;49.764;9.796;2023-05-18T06:58:09;12.70;1.00
5901;DHT22;2976;49.764;9.796;2023-05-18T07:00:36;13.00;1.00
5901;DHT22;2976;49.764;9.796;2023-05-18T07:03:02;13.20;1.00
5901;DHT22;2976;49.764;9.796;2023-05-18T07:05:27;13.10;1.00
5901;DHT22;2976;49.764;9.796;2023-05-18T07:07:54;13.40;1.00
5901;DHT22;2976;49.764;9.796;2023-05-18T07:10:20;13.80;99.90
5901;DHT22;2976;49.764;9.796;2023-05-18T07:12:47;14.30;99.90
5901;DHT22;2976;49.764;9.796;2023-05-18T07:15:12;14.20;99.90
5901;DHT22;2976;49.764;9.796;2023-05-18T07:17:38;14.30;99.90
5901;DHT22;2976;49.764;9.796;2023-05-18T07:20:05;14.40;99.90
5901;DHT22;2976;49.764;9.796;2023-05-18T07:22:32;14.10;99.90
5901;DHT22;2976;49.764;9.796;2023-05-18T07:24:57;14.00;99.90
5901;DHT22;2976;49.764;9.796;2023-05-18T07:27:23;13.80;99.90
5901;DHT22;2976;49.764;9.796;2023-05-18T07:29:49;13.90;99.90
5901;DHT22;2976;49.764;9.796;2023-05-18T07:32:15;14.30;99.90
5901;DHT22;2976;49.764;9.796;2023-05-18T07:34:40;14.00;99.90
5901;DHT22;2976;49.764;9.796;2023-05-18T07:37:08;14.00;99.90
5901;DHT22;2976;49.764;9.796;2023-05-18T07:39:34;13.70;99.90
5901;DHT22;2976;49.764;9.796;2023-05-18T07:42:00;13.70;99.90
5901;DHT22;2976;49.764;9.796;2023-05-18T07:44:26;13.50;99.90
5901;DHT22;2976;49.764;9.796;2023-05-18T07:46:52;13.50;1.00
5901;DHT22;2976;49.764;9.796;2023-05-18T07:49:17;13.50;1.00
5901;DHT22;2976;49.764;9.796;2023-05-18T07:51:43;13.90;1.00
5901;DHT22;2976;49.764;9.796;2023-05-18T07:54:09;14.00;99.90
5901;DHT22;2976;49.764;9.796;2023-05-18T07:56:34;14.00;99.90
5901;DHT22;2976;49.764;9.796;2023-05-18T07:59:00;13.70;99.90
5901;DHT22;2976;49.764;9.796;2023-05-18T08:01:26;13.50;1.00
5901;DHT22;2976;49.764;9.796;2023-05-18T08:03:54;13.70;99.90
5901;DHT22;2976;49.764;9.796;2023-05-18T08:06:20;13.30;99.90
5901;DHT22;2976;49.764;9.796;2023-05-18T08:08:46;13.60;99.90
5901;DHT22;2976;49.764;9.796;2023-05-18T08:11:12;13.70;99.90
5901;DHT22;2976;49.764;9.796;2023-05-18T08:13:37;14.40;99.90
5901;DHT22;2976;49.764;9.796;2023-05-18T08:16:03;14.80;99.90
5901;DHT22;2976;49.764;9.796;2023-05-18T08:18:28;14.90;99.90
5901;DHT22;2976;49.764;9.796;2023-05-18T08:20:54;14.80;99.90
5901;DHT22;2976;49.764;9.796;2023-05-18T08:23:20;15.10;99.90
5901;DHT22;2976;49.764;9.796;2023-05-18T08:25:46;15.00;99.90
5901;DHT22;2976;49.764;9.796;2023-05-18T08:28:11;15.10;99.90
5901;DHT22;2976;49.764;9.796;2023-05-18T08:30:37;14.80;99.90
5901;DHT22;2976;49.764;9.796;2023-05-18T08:33:02;14.70;99.90
5901;DHT22;2976;49.764;9.796;2023-05-18T08:35:28;15.20;99.90
5901;DHT22;2976;49.764;9.796;2023-05-18T08:37:54;15.60;99.90
5901;DHT22;2976;49.764;9.796;2023-05-18T08:40:19;16.20;99.90
5901;DHT22;2976;49.764;9.796;2023-05-18T08:43:02;16.20;99.90
5901;DHT22;2976;49.764;9.796;2023-05-18T08:45:48;16.40;99.90
5901;DHT22;2976;49.764;9.796;2023-05-18T08:48:15;16.80;99.90
5901;DHT22;2976;49.764;9.796;2023-05-18T08:50:43;16.80;99.90
5901;DHT22;2976;49.764;9.796;2023-05-18T08:53:09;17.30;99.90
5901;DHT22;2976;49.764;9.796;2023-05-18T08:55:36;17.10;99.90
5901;DHT22;2976;49.764;9.796;2023-05-18T08:58:03;16.50;99.90
5901;DHT22;2976;49.764;9.796;2023-05-18T09:00:29;16.70;99.90
5901;DHT22;2976;49.764;9.796;2023-05-18T09:02:57;16.60;99.90
5901;DHT22;2976;49.764;9.796;2023-05-18T09:05:22;16.80;99.90
5901;DHT22;2976;49.764;9.796;2023-05-18T09:07:51;16.60;99.90
5901;DHT22;2976;49.764;9.796;2023-05-18T09:10:19;16.70;99.90
5901;DHT22;2976;49.764;9.796;2023-05-18T09:12:45;16.30;99.90
5901;DHT22;2976;49.764;9.796;2023-05-18T09:15:13;16.50;99.90
5901;DHT22;2976;49.764;9.796;2023-05-18T09:17:39;16.80;99.90
5901;DHT22;2976;49.764;9.796;2023-05-18T09:20:05;16.70;99.90
5901;DHT22;2976;49.764;9.796;2023-05-18T09:22:32;16.50;99.90
5901;DHT22;2976;49.764;9.796;2023-05-18T09:25:00;16.40;99.90
5901;DHT22;2976;49.764;9.796;2023-05-18T09:27:26;16.50;99.90
5901;DHT22;2976;49.764;9.796;2023-05-18T09:29:53;16.70;99.90
5901;DHT22;2976;49.764;9.796;2023-05-18T09:32:20;16.10;99.90
5901;DHT22;2976;49.764;9.796;2023-05-18T09:34:46;16.40;99.90
5901;DHT22;2976;49.764;9.796;2023-05-18T09:37:15;17.10;99.90
5901;DHT22;2976;49.764;9.796;2023-05-18T09:39:41;17.50;99.90
5901;DHT22;2976;49.764;9.796;2023-05-18T09:42:07;18.10;99.90
5901;DHT22;2976;49.764;9.796;2023-05-18T09:44:33;18.00;99.90
5901;DHT22;2976;49.764;9.796;2023-05-18T09:47:00;17.20;99.10
5901;DHT22;2976;49.764;9.796;2023-05-18T09:49:28;16.90;99.90
5901;DHT22;2976;49.764;9.796;2023-05-18T09:51:56;17.30;99.90
5901;DHT22;2976;49.764;9.796;2023-05-18T09:54:24;17.80;99.90
5901;DHT22;2976;49.764;9.796;2023-05-18T09:56:50;18.70;99.90
5901;DHT22;2976;49.764;9.796;2023-05-18T09:59:15;19.00;99.60
5901;DHT22;2976;49.764;9.796;2023-05-18T10:02:00;18.40;97.30
5901;DHT22;2976;49.764;9.796;2023-05-18T10:04:40;17.30;96.60
5901;DHT22;2976;49.764;9.796;2023-05-18T10:07:14;17.50;99.30
5901;DHT22;2976;49.764;9.796;2023-05-18T10:09:42;16.90;99.20
5901;DHT22;2976;49.764;9.796;2023-05-18T10:12:17;16.80;99.90
5901;DHT22;2976;49.764;9.796;2023-05-18T10:14:45;17.00;99.90
5901;DHT22;2976;49.764;9.796;2023-05-18T10:17:12;17.40;99.90
5901;DHT22;2976;49.764;9.796;2023-05-18T10:19:40;17.40;99.90
5901;DHT22;2976;49.764;9.796;2023-05-18T10:22:09;17.60;99.90
5901;DHT22;2976;49.764;9.796;2023-05-18T10:24:38;17.30;99.90
5901;DHT22;2976;49.764;9.796;2023-05-18T10:27:08;17.10;99.90
5901;DHT22;2976;49.764;9.796;2023-05-18T10:29:37;17.50;99.90
5901;DHT22;2976;49.764;9.796;2023-05-18T10:32:04;18.00;99.90
5901;DHT22;2976;49.764;9.796;2023-05-18T10:34:33;18.50;99.90
5901;DHT22;2976;49.764;9.796;2023-05-18T10:37:01;18.20;99.60
5901;DHT22;2976;49.764;9.796;2023-05-18T10:39:30;18.10;99.90
5901;DHT22;2976;49.764;9.796;2023-05-18T10:41:58;18.60;99.90
5901;DHT22;2976;49.764;9.796;2023-05-18T10:44:24;19.10;99.90
5901;DHT22;2976;49.764;9.796;2023-05-18T10:46:51;19.00;99.90
5901;DHT22;2976;49.764;9.796;2023-05-18T10:49:19;18.20;96.50
5901;DHT22;2976;49.764;9.796;2023-05-18T10:51:48;18.30;99.90
5901;DHT22;2976;49.764;9.796;2023-05-18T10:54:16;18.30;99.90
5901;DHT22;2976;49.764;9.796;2023-05-18T10:56:47;18.40;98.50
5901;DHT22;2976;49.764;9.796;2023-05-18T10:59:15;17.60;98.20
5901;DHT22;2976;49.764;9.796;2023-05-18T11:01:43;17.20;99.90
5901;DHT22;2976;49.764;9.796;2023-05-18T11:04:10;17.40;99.90
5901;DHT22;2976;49.764;9.796;2023-05-18T11:06:36;17.50;99.90
5901;DHT22;2976;49.764;9.796;2023-05-18T11:09:02;17.50;99.90
5901;DHT22;2976;49.764;9.796;2023-05-18T11:11:28;17.60;99.90
5901;DHT22;2976;49.764;9.796;2023-05-18T11:13:59;17.90;99.90
5901;DHT22;2976;49.764;9.796;2023-05-18T11:16:44;17.60;99.90
5901;DHT22;2976;49.764;9.796;2023-05-18T11:19:09;17.50;99.90
5901;DHT22;2976;49.764;9.796;2023-05-18T11:24:23;17.10;99.90
5901;DHT22;2976;49.764;9.796;2023-05-18T11:26:53;17.20;99.90
5901;DHT22;2976;49.764;9.796;2023-05-18T11:29:32;16.70;99.90
5901;DHT22;2976;49.764;9.796;2023-05-18T11:31:58;16.50;99.90
5901;DHT22;2976;49.764;9.796;2023-05-18T11:34:44;16.40;99.90
5901;DHT22;2976;49.764;9.796;2023-05-18T11:37:14;17.20;99.90
5901;DHT22;2976;49.764;9.796;2023-05-18T11:39:41;18.20;99.90
5901;DHT22;2976;49.764;9.796;2023-05-18T11:42:09;18.80;99.90
5901;DHT22;2976;49.764;9.796;2023-05-18T11:44:35;18.80;99.90
5901;DHT22;2976;49.764;9.796;2023-05-18T11:47:03;19.20;99.90
5901;DHT22;2976;49.764;9.796;2023-05-18T11:49:31;18.70;99.90
5901;DHT22;2976;49.764;9.796;2023-05-18T11:54:43;19.00;99.90
5901;DHT22;2976;49.764;9.796;2023-05-18T11:57:12;19.30;99.90
5901;DHT22;2976;49.764;9.796;2023-05-18T11:59:40;18.70;98.50
5901;DHT22;2976;49.764;9.796;2023-05-18T12:02:06;18.10;99.90
5901;DHT22;2976;49.764;9.796;2023-05-18T12:04:47;17.60;98.60
5901;DHT22;2976;49.764;9.796;2023-05-18T12:07:15;17.40;99.80
5901;DHT22;2976;49.764;9.796;2023-05-18T12:09:42;17.80;99.90
5901;DHT22;2976;49.764;9.796;2023-05-18T12:12:09;17.80;99.90
5901;DHT22;2976;49.764;9.796;2023-05-18T12:14:43;17.50;99.90
5901;DHT22;2976;49.764;9.796;2023-05-18T12:17:10;17.30;99.90
5901;DHT22;2976;49.764;9.796;2023-05-18T12:19:47;17.40;99.90
5901;DHT22;2976;49.764;9.796;2023-05-18T12:22:13;17.60;99.90
5901;DHT22;2976;49.764;9.796;2023-05-18T12:24:39;17.50;99.90
5901;DHT22;2976;49.764;9.796;2023-05-18T12:27:07;17.50;99.90
5901;DHT22;2976;49.764;9.796;2023-05-18T12:29:37;17.30;99.90
5901;DHT22;2976;49.764;9.796;2023-05-18T12:32:10;17.20;99.90
5901;DHT22;2976;49.764;9.796;2023-05-18T12:34:37;17.50;99.90
5901;DHT22;2976;49.764;9.796;2023-05-18T12:37:06;17.80;99.90
5901;DHT22;2976;49.764;9.796;2023-05-18T12:39:32;17.80;99.90
5901;DHT22;2976;49.764;9.796;2023-05-18T12:42:12;17.40;99.90
5901;DHT22;2976;49.764;9.796;2023-05-18T12:44:41;17.40;99.90
5901;DHT22;2976;49.764;9.796;2023-05-18T12:47:10;17.70;99.90
5901;DHT22;2976;49.764;9.796;2023-05-18T12:49:37;18.00;99.90
5901;DHT22;2976;49.764;9.796;2023-05-18T12:52:11;18.20;99.90
5901;DHT22;2976;49.764;9.796;2023-05-18T12:54:47;18.10;99.90
5901;DHT22;2976;49.764;9.796;2023-05-18T12:57:14;18.10;99.90
5901;DHT22;2976;49.764;9.796;2023-05-18T12:59:46;18.10;99.90
5901;DHT22;2976;49.764;9.796;2023-05-18T13:02:30;18.00;99.90
5901;DHT22;2976;49.764;9.796;2023-05-18T13:05:09;17.70;99.90
5901;DHT22;2976;49.764;9.796;2023-05-18T13:07:42;17.30;99.90
5901;DHT22;2976;49.764;9.796;2023-05-18T13:10:16;17.30;99.90
5901;DHT22;2976;49.764;9.796;2023-05-18T13:12:50;17.60;99.90
5901;DHT22;2976;49.764;9.796;2023-05-18T13:15:21;17.80;99.90
5901;DHT22;2976;49.764;9.796;2023-05-18T13:17:58;17.90;99.90
5901;DHT22;2976;49.764;9.796;2023-05-18T13:20:31;18.00;99.90
5901;DHT22;2976;49.764;9.796;2023-05-18T13:22:58;18.30;99.90
5901;DHT22;2976;49.764;9.796;2023-05-18T13:25:26;18.70;99.90
5901;DHT22;2976;49.764;9.796;2023-05-18T13:27:51;18.70;99.90
5901;DHT22;2976;49.764;9.796;2023-05-18T13:30:20;18.20;99.90
5901;DHT22;2976;49.764;9.796;2023-05-18T13:32:45;18.30;99.90
5901;DHT22;2976;49.764;9.796;2023-05-18T13:35:11;18.30;99.90
5901;DHT22;2976;49.764;9.796;2023-05-18T13:37:38;18.20;99.90
5901;DHT22;2976;49.764;9.796;2023-05-18T13:40:04;17.80;99.90
5901;DHT22;2976;49.764;9.796;2023-05-18T13:42:30;17.90;99.90
5901;DHT22;2976;49.764;9.796;2023-05-18T13:44:56;17.70;99.90
5901;DHT22;2976;49.764;9.796;2023-05-18T13:47:21;17.50;99.90
5901;DHT22;2976;49.764;9.796;2023-05-18T13:49:47;17.70;99.90
5901;DHT22;2976;49.764;9.796;2023-05-18T13:52:12;17.70;99.90
5901;DHT22;2976;49.764;9.796;2023-05-18T13:54:38;18.00;99.90
5901;DHT22;2976;49.764;9.796;2023-05-18T13:57:04;17.90;99.90
5901;DHT22;2976;49.764;9.796;2023-05-18T13:59:29;17.40;99.90
5901;DHT22;2976;49.764;9.796;2023-05-18T14:01:59;17.30;99.90
5901;DHT22;2976;49.764;9.796;2023-05-18T14:04:25;17.50;99.90
5901;DHT22;2976;49.764;9.796;2023-05-18T14:06:50;17.80;99.90
5901;DHT22;2976;49.764;9.796;2023-05-18T14:09:21;17.80;99.90
5901;DHT22;2976;49.764;9.796;2023-05-18T14:11:47;17.80;99.90
5901;DHT22;2976;49.764;9.796;2023-05-18T14:14:12;18.00;99.90
5901;DHT22;2976;49.764;9.796;2023-05-18T14:16:38;17.90;99.90
5901;DHT22;2976;49.764;9.796;2023-05-18T14:19:03;17.80;99.90
5901;DHT22;2976;49.764;9.796;2023-05-18T14:21:29;17.70;99.90
5901;DHT22;2976;49.764;9.796;2023-05-18T14:23:55;17.70;99.90
5901;DHT22;2976;49.764;9.796;2023-05-18T14:26:21;18.00;99.90
5901;DHT22;2976;49.764;9.796;2023-05-18T14:28:47;17.90;99.90
5901;DHT22;2976;49.764;9.796;2023-05-18T14:31:12;18.10;99.90
5901;DHT22;2976;49.764;9.796;2023-05-18T14:33:38;17.70;99.90
5901;DHT22;2976;49.764;9.796;2023-05-18T14:36:04;17.90;99.90
5901;DHT22;2976;49.764;9.796;2023-05-18T14:38:29;18.10;99.90
5901;DHT22;2976;49.764;9.796;2023-05-18T14:40:55;18.20;99.90
5901;DHT22;2976;49.764;9.796;2023-05-18T14:43:20;18.10;99.90
5901;DHT22;2976;49.764;9.796;2023-05-18T14:45:46;18.40;99.90
5901;DHT22;2976;49.764;9.796;2023-05-18T14:48:12;18.50;99.90
5901;DHT22;2976;49.764;9.796;2023-05-18T14:50:37;18.40;99.90
5901;DHT22;2976;49.764;9.796;2023-05-18T14:53:03;18.30;99.90
5901;DHT22;2976;49.764;9.796;2023-05-18T14:55:28;18.10;99.90
5901;DHT22;2976;49.764;9.796;2023-05-18T14:57:54;18.10;99.90
5901;DHT22;2976;49.764;9.796;2023-05-18T15:00:19;18.20;99.90
5901;DHT22;2976;49.764;9.796;2023-05-18T15:02:45;18.20;99.90
5901;DHT22;2976;49.764;9.796;2023-05-18T15:05:11;18.10;99.90
5901;DHT22;2976;49.764;9.796;2023-05-18T15:07:36;17.90;99.90
5901;DHT22;2976;49.764;9.796;2023-05-18T15:10:02;17.90;99.90
5901;DHT22;2976;49.764;9.796;2023-05-18T15:12:28;17.80;99.90
5901;DHT22;2976;49.764;9.796;2023-05-18T15:14:54;17.70;99.90
5901;DHT22;2976;49.764;9.796;2023-05-18T15:17:20;17.70;99.90
5901;DHT22;2976;49.764;9.796;2023-05-18T15:19:46;17.60;99.90
5901;DHT22;2976;49.764;9.796;2023-05-18T15:22:12;17.90;99.90
5901;DHT22;2976;49.764;9.796;2023-05-18T15:24:37;18.00;99.90
5901;DHT22;2976;49.764;9.796;2023-05-18T15:27:03;17.90;99.90
5901;DHT22;2976;49.764;9.796;2023-05-18T15:29:29;18.00;99.90
5901;DHT22;2976;49.764;9.796;2023-05-18T15:31:54;17.60;99.90
5901;DHT22;2976;49.764;9.796;2023-05-18T15:34:20;17.30;99.90
5901;DHT22;2976;49.764;9.796;2023-05-18T15:36:46;17.00;99.90
5901;DHT22;2976;49.764;9.796;2023-05-18T15:39:12;17.10;99.90
5901;DHT22;2976;49.764;9.796;2023-05-18T15:41:37;17.20;99.90
5901;DHT22;2976;49.764;9.796;2023-05-18T15:44:03;17.40;99.90
5901;DHT22;2976;49.764;9.796;2023-05-18T15:46:30;17.50;99.90
5901;DHT22;2976;49.764;9.796;2023-05-18T15:49:02;17.60;99.90
5901;DHT22;2976;49.764;9.796;2023-05-18T15:51:28;17.70;99.90
5901;DHT22;2976;49.764;9.796;2023-05-18T15:53:54;17.50;99.90
5901;DHT22;2976;49.764;9.796;2023-05-18T15:56:20;17.80;99.90
5901;DHT22;2976;49.764;9.796;2023-05-18T15:58:46;17.90;99.90
5901;DHT22;2976;49.764;9.796;2023-05-18T16:01:12;18.20;99.90
5901;DHT22;2976;49.764;9.796;2023-05-18T16:03:37;18.10;99.90
5901;DHT22;2976;49.764;9.796;2023-05-18T16:06:04;18.20;99.90
5901;DHT22;2976;49.764;9.796;2023-05-18T16:08:29;18.10;99.90
5901;DHT22;2976;49.764;9.796;2023-05-18T16:10:55;18.00;99.90
5901;DHT22;2976;49.764;9.796;2023-05-18T16:13:20;17.70;99.90
5901;DHT22;2976;49.764;9.796;2023-05-18T16:15:50;17.60;99.90
5901;DHT22;2976;49.764;9.796;2023-05-18T16:18:15;17.50;99.90